Latest Areodrome Forecast (TAF)

TAF VMMC 242300Z 2500/2606 14012KT 9999 FEW015 SCT025 TEMPO 2500/2504 3500 TSRA FEW010CB SCT015 TEMPO 2508/2512 4500 SHRA FEW010CB SCT015 TEMPO 2520/2604 4500 SHRA FEW010CB SCT015=

Decoded TAF in plain language
Contents of Report Code Information
Report Type TAF Aerodrome Forecasts
Location VMMC Macao, China
Issuing Time 242300Z 24/06/2018 23:00 UTC
Period of Validity of Forecast 2500/2606 Between 25th 00:00 UTC and 26th 06:00 UTC
Surface Wind Direction and Speed 14012KT mean direction 140 degrees, speed 12 knots
Visibility 9999 10 kilometres or more
Weather    
Cloud FEW015 SCT025 amount 1-2 oktas, base 1500 feet;
amount 3-4 oktas, base 2500 feet
Expected Significant ChangesTEMPO 2500/2504 3500 TSRA FEW010CB SCT015temporarily between 25th 00:00 UTC and 25th 04:00 UTC
visibility: 3500 metres
weather: rain with thunderstorm
cloud: amount 1-2 oktas cumulonimbus, base 1000 feet; amount 3-4 oktas, base 1500 feet
 TEMPO 2508/2512 4500 SHRA FEW010CB SCT015temporarily between 25th 08:00 UTC and 25th 12:00 UTC
visibility: 4500 metres
weather: rain shower
cloud: amount 1-2 oktas cumulonimbus, base 1000 feet; amount 3-4 oktas, base 1500 feet
 TEMPO 2520/2604 4500 SHRA FEW010CB SCT015temporarily between 25th 20:00 UTC and 26th 04:00 UTC
visibility: 4500 metres
weather: rain shower
cloud: amount 1-2 oktas cumulonimbus, base 1000 feet; amount 3-4 oktas, base 1500 feet

OTHER INTERNATIONAL AIRPORTS:
Weather Forecast (TAF)   Weather Report (METAR)